Time;durP1;ratioP1;P1;durP2;ratioP2;P2;SDS_P1;SDS_P2;PMS_P1;PMS_P2;Temp;Humidity;BMP_temperature;BMP_pressure;BME280_temperature;BME280_humidity;BME280_pressure;Samples;Min_cycle;Max_cycle;Signal;HPM_P1;HPM_P2
2023/08/20 00:02:54;;;;;;;25.40;17.75;;;;;;;21.04;80.82;100939.97;10132915;28;20048;-76
2023/08/20 00:07:57;;;;;;;28.05;17.60;;;;;;;21.09;80.70;100942.97;10128533;28;20362;-76
2023/08/20 00:13:00;;;;;;;25.90;16.67;;;;;;;21.08;80.01;100944.03;10127211;28;20047;-74
2023/08/20 00:18:05;;;;;;;23.17;16.73;;;;;;;21.04;80.11;100945.41;10115449;29;20079;-74
2023/08/20 00:23:09;;;;;;;23.10;14.77;;;;;;;20.99;80.02;100943.19;10115594;29;20072;-76
2023/08/20 00:28:12;;;;;;;24.83;16.60;;;;;;;20.90;79.74;100958.78;10135158;28;20056;-75
2023/08/20 00:33:16;;;;;;;21.52;15.07;;;;;;;20.92;79.92;100958.56;10135408;28;20048;-76
2023/08/20 00:38:19;;;;;;;23.45;16.52;;;;;;;21.03;78.82;100949.97;10132742;29;20056;-74
2023/08/20 00:43:22;;;;;;;21.23;14.82;;;;;;;21.17;79.15;100962.03;10140594;28;20052;-76
2023/08/20 00:48:27;;;;;;;19.67;14.38;;;;;;;21.20;78.73;100956.22;10137617;29;20059;-76
2023/08/20 00:53:30;;;;;;;21.33;14.57;;;;;;;21.18;78.28;100958.31;10136355;28;20082;-76
2023/08/20 00:58:33;;;;;;;20.10;14.13;;;;;;;21.12;78.10;100950.84;10139568;28;20052;-76
2023/08/20 01:03:37;;;;;;;21.45;14.30;;;;;;;21.11;78.25;100952.69;10141366;28;20055;-76
2023/08/20 01:08:41;;;;;;;16.65;11.73;;;;;;;21.04;78.85;100953.63;10125168;29;20052;-76
2023/08/20 01:13:45;;;;;;;19.13;12.93;;;;;;;20.96;78.81;100949.84;10130718;29;21309;-76
2023/08/20 01:18:51;;;;;;;26.65;13.70;;;;;;;20.83;78.77;100948.72;10131409;29;20448;-74
2023/08/20 01:24:05;;;;;;;17.00;12.95;;;;;;;20.45;80.27;100954.00;10133659;28;20084;-74
2023/08/20 01:29:11;;;;;;;21.52;13.68;;;;;;;20.60;80.49;100957.72;10129109;28;20059;-76
2023/08/20 01:34:14;;;;;;;23.88;14.40;;;;;;;20.45;80.68;100962.19;10132604;29;20421;-76
2023/08/20 01:39:18;;;;;;;18.05;12.10;;;;;;;20.32;80.71;100957.25;10132731;28;20096;-76
2023/08/20 01:44:22;;;;;;;18.17;13.95;;;;;;;20.31;81.31;100961.03;10143632;29;20056;-76
2023/08/20 01:49:25;;;;;;;21.00;12.60;;;;;;;20.25;81.38;100953.50;10138116;28;20048;-74
2023/08/20 01:54:28;;;;;;;18.45;11.27;;;;;;;20.23;81.31;100950.09;10138418;28;20089;-76
2023/08/20 01:59:33;;;;;;;19.60;13.00;;;;;;;20.25;80.94;100956.25;10137207;28;20531;-75
2023/08/20 02:04:36;;;;;;;19.88;14.35;;;;;;;20.07;80.54;100956.44;10128176;29;20210;-75
2023/08/20 02:09:40;;;;;;;19.92;11.90;;;;;;;19.89;79.25;100964.81;10126354;29;21217;-75
2023/08/20 02:14:44;;;;;;;13.23;8.00;;;;;;;19.82;77.21;100961.06;10140457;29;20044;-75
2023/08/20 02:19:47;;;;;;;12.07;6.10;;;;;;;19.74;76.07;100953.75;10139046;28;20655;-75
2023/08/20 02:24:50;;;;;;;8.48;5.85;;;;;;;19.78;75.31;100957.00;10137620;28;20052;-75
2023/08/20 02:29:54;;;;;;;5.53;4.88;;;;;;;19.78;74.67;100965.19;10134694;29;20066;-75
2023/08/20 02:34:57;;;;;;;10.95;5.18;;;;;;;19.85;74.77;100964.28;10128529;29;20059;-75
2023/08/20 02:40:01;;;;;;;13.77;6.20;;;;;;;19.23;75.92;100970.19;10141881;29;20051;-75
2023/08/20 02:45:07;;;;;;;8.25;5.50;;;;;;;18.88;77.58;100970.44;10133722;28;20044;-75
2023/08/20 02:50:10;;;;;;;12.38;5.72;;;;;;;19.00;77.63;100967.22;10133918;28;20052;-75
2023/08/20 02:55:13;;;;;;;12.73;5.85;;;;;;;19.07;77.43;100972.88;10140505;28;20059;-75
2023/08/20 03:00:17;;;;;;;7.13;5.13;;;;;;;19.12;77.25;100977.84;10137668;28;20052;-75
2023/08/20 03:05:20;;;;;;;9.10;4.90;;;;;;;19.21;76.40;100982.28;10134215;28;20052;-75
2023/08/20 03:10:23;;;;;;;10.70;6.03;;;;;;;19.38;75.36;100992.16;10133183;29;21291;-75
2023/08/20 03:15:27;;;;;;;12.57;5.68;;;;;;;19.43;75.24;101002.56;10133095;28;20048;-75
2023/08/20 03:20:31;;;;;;;11.23;5.40;;;;;;;19.56;75.22;101000.25;10130744;28;20432;-75
2023/08/20 03:25:34;;;;;;;11.60;5.00;;;;;;;19.64;75.18;100999.41;10132889;28;20052;-75
2023/08/20 03:30:38;;;;;;;12.85;5.93;;;;;;;19.60;74.76;100995.31;10136929;28;20048;-75
2023/08/20 03:35:42;;;;;;;13.60;6.10;;;;;;;19.62;75.16;100999.56;10133229;28;20060;-75
2023/08/20 03:40:45;;;;;;;12.32;6.65;;;;;;;19.72;75.02;100999.41;10122301;28;20047;-75
2023/08/20 03:45:52;;;;;;;13.48;6.80;;;;;;;19.64;75.47;100992.09;10132690;29;20052;-75
2023/08/20 03:50:55;;;;;;;11.13;6.93;;;;;;;19.49;75.62;100992.88;10127340;29;20060;-75
2023/08/20 03:55:58;;;;;;;12.73;7.28;;;;;;;19.31;76.08;100998.44;10121729;29;20075;-75
2023/08/20 04:01:03;;;;;;;13.02;6.70;;;;;;;19.31;76.14;101006.63;10140181;28;20055;-75
2023/08/20 04:06:07;;;;;;;13.38;6.15;;;;;;;19.20;76.67;101021.44;10125926;29;20562;-75
2023/08/20 04:11:10;;;;;;;9.73;5.45;;;;;;;18.85;76.71;101027.94;10127928;28;20046;-75
2023/08/20 04:16:16;;;;;;;12.40;5.55;;;;;;;18.74;77.31;101031.75;10129991;28;20052;-75
2023/08/20 04:21:19;;;;;;;10.23;5.85;;;;;;;19.10;79.37;101027.00;10132488;29;20060;-75
2023/08/20 04:26:22;;;;;;;7.72;5.13;;;;;;;19.43;75.82;101032.53;10134517;29;20044;-75
2023/08/20 04:31:27;;;;;;;8.00;4.53;;;;;;;19.51;75.56;101023.53;10131180;29;20059;-75
2023/08/20 04:36:36;;;;;;;10.40;4.43;;;;;;;19.49;75.28;101020.97;10127803;28;20052;-75
2023/08/20 04:41:39;;;;;;;10.50;5.13;;;;;;;19.58;73.83;101032.75;10121605;29;20063;-75
2023/08/20 04:46:49;;;;;;;9.95;4.32;;;;;;;19.26;73.94;101045.28;10136687;28;20055;-75
2023/08/20 04:51:53;;;;;;;8.32;3.88;;;;;;;18.72;76.18;101045.50;10129518;29;21552;-75
2023/08/20 04:56:56;;;;;;;9.02;3.80;;;;;;;19.16;75.90;101050.84;10119225;29;20408;-75
2023/08/20 05:02:00;;;;;;;8.93;3.72;;;;;;;18.71;76.01;101054.69;10124495;29;20056;-75
2023/08/20 05:07:15;;;;;;;8.68;3.60;;;;;;;18.70;76.50;101052.97;10125302;28;20059;-75
2023/08/20 05:12:19;;;;;;;5.07;3.50;;;;;;;19.12;75.89;101044.03;10132275;28;20044;-75
2023/08/20 05:17:24;;;;;;;6.88;4.53;;;;;;;19.56;75.09;101043.00;10120930;28;20059;-75
2023/08/20 05:22:27;;;;;;;11.18;5.63;;;;;;;19.78;73.80;101028.72;10125002;29;20303;-75
2023/08/20 05:27:30;;;;;;;5.43;4.85;;;;;;;19.81;73.76;101030.25;10138152;29;20090;-75
2023/08/20 05:32:35;;;;;;;9.90;4.72;;;;;;;19.84;73.45;101038.94;10137440;28;20527;-75
2023/08/20 05:37:38;;;;;;;10.43;4.78;;;;;;;19.94;73.44;101035.19;10135148;28;20059;-76
2023/08/20 05:42:41;;;;;;;7.70;4.65;;;;;;;20.06;73.02;101042.84;10139340;29;20048;-76
2023/08/20 05:47:45;;;;;;;10.55;4.88;;;;;;;20.35;72.55;101041.53;10136962;29;20099;-76
2023/08/20 05:52:49;;;;;;;10.80;4.88;;;;;;;20.53;70.52;101049.47;10130867;29;20051;-75
2023/08/20 05:57:52;;;;;;;8.45;4.60;;;;;;;20.37;69.84;101049.50;10132515;29;20048;-76
2023/08/20 06:02:57;;;;;;;11.65;4.88;;;;;;;20.13;69.37;101046.63;10135030;28;20056;-76
2023/08/20 06:08:00;;;;;;;11.73;4.47;;;;;;;20.05;69.26;101038.44;10137625;28;20116;-76
2023/08/20 06:13:03;;;;;;;8.40;3.95;;;;;;;20.33;69.56;101021.72;10135031;28;20040;-75
2023/08/20 06:18:08;;;;;;;5.25;3.65;;;;;;;20.51;69.75;101029.69;10130026;28;20052;-76
2023/08/20 06:23:11;;;;;;;8.20;3.78;;;;;;;20.53;68.94;101041.28;10133659;29;20052;-76
2023/08/20 06:28:30;;;;;;;9.77;4.10;;;;;;;20.61;68.73;101048.63;10130745;28;20056;-76
2023/08/20 06:33:34;;;;;;;7.35;4.22;;;;;;;20.96;68.75;101060.97;10137670;28;20055;-77
2023/08/20 06:38:37;;;;;;;11.65;4.78;;;;;;;21.10;68.12;101053.94;10142000;29;20059;-76
2023/08/20 06:43:40;;;;;;;9.40;4.97;;;;;;;21.18;68.67;101046.56;10134098;29;20052;-76
2023/08/20 06:48:44;;;;;;;7.90;4.80;;;;;;;21.32;68.35;101055.88;10136807;29;20594;-76
2023/08/20 06:53:47;;;;;;;8.77;4.90;;;;;;;21.44;68.29;101054.44;10132565;29;20587;-76
2023/08/20 06:58:50;;;;;;;10.00;5.07;;;;;;;21.44;67.11;101051.69;10129461;28;20134;-76
2023/08/20 07:03:54;;;;;;;8.70;5.28;;;;;;;21.48;66.85;101045.91;10125099;29;20052;-76
2023/08/20 07:08:57;;;;;;;8.57;4.80;;;;;;;21.98;66.59;101058.22;10132417;29;20075;-76
2023/08/20 07:13:59;;;;;;;8.90;4.68;;;;;;;22.52;64.68;101053.47;10136685;28;20056;-76
2023/08/20 07:19:04;;;;;;;5.22;4.22;;;;;;;22.84;63.53;101047.81;10127637;29;20061;-77
2023/08/20 07:24:07;;;;;;;6.78;5.10;;;;;;;22.44;63.88;101058.19;10133990;28;20048;-75
2023/08/20 07:29:11;;;;;;;9.68;5.40;;;;;;;22.54;64.66;101048.69;10131385;28;20048;-76
2023/08/20 07:34:15;;;;;;;11.10;5.45;;;;;;;22.86;63.36;101046.59;10124038;29;20048;-76
2023/08/20 07:39:18;;;;;;;9.18;5.90;;;;;;;22.90;63.27;101050.66;10123878;29;20092;-75
2023/08/20 07:44:21;;;;;;;9.85;6.00;;;;;;;23.45;63.11;101053.91;10127549;29;21888;-76
2023/08/20 07:49:25;;;;;;;8.73;6.38;;;;;;;23.58;61.97;101036.75;10133804;28;20052;-77
2023/08/20 07:54:28;;;;;;;14.23;7.07;;;;;;;23.74;61.44;101032.91;10133927;28;20060;-76
2023/08/20 07:59:31;;;;;;;10.32;7.10;;;;;;;24.05;61.62;101036.19;10131598;29;20156;-75
2023/08/20 08:04:36;;;;;;;11.65;7.88;;;;;;;24.25;60.83;101032.78;10130295;29;20190;-76
2023/08/20 08:09:39;;;;;;;9.90;7.88;;;;;;;24.60;60.21;101036.44;10127982;28;20531;-75
2023/08/20 08:14:42;;;;;;;11.52;8.32;;;;;;;24.71;59.66;101045.97;10131968;29;20130;-75
2023/08/20 08:19:46;;;;;;;11.40;8.35;;;;;;;24.60;60.26;101041.94;10132307;28;20059;-76
2023/08/20 08:24:49;;;;;;;11.38;10.02;;;;;;;24.87;59.21;101047.56;10128580;29;20055;-76
2023/08/20 08:29:52;;;;;;;13.00;10.38;;;;;;;25.37;58.01;101040.00;10127575;29;20056;-76
2023/08/20 08:34:56;;;;;;;13.98;10.88;;;;;;;25.57;57.00;101046.41;10130931;29;20055;-76
2023/08/20 08:39:59;;;;;;;11.98;10.07;;;;;;;25.74;56.26;101044.13;10138175;29;20084;-76
2023/08/20 08:45:03;;;;;;;10.70;9.63;;;;;;;26.12;55.60;101034.44;10132065;28;20075;-76
2023/08/20 08:50:09;;;;;;;11.75;9.30;;;;;;;26.67;54.19;101033.13;10128381;28;20048;-76
2023/08/20 08:55:12;;;;;;;11.20;8.35;;;;;;;27.27;52.90;101035.72;10127868;28;20072;-74
2023/08/20 09:00:16;;;;;;;9.82;8.82;;;;;;;27.20;51.02;101042.31;10124754;28;21334;-77
2023/08/20 09:05:20;;;;;;;9.88;8.48;;;;;;;27.16;51.34;101037.25;10129346;29;20052;-77
2023/08/20 09:10:26;;;;;;;9.10;7.40;;;;;;;27.16;50.23;101042.75;10125672;29;20048;-75
2023/08/20 09:15:35;;;;;;;10.02;7.72;;;;;;;27.47;49.76;101045.81;10130903;29;20594;-75
2023/08/20 09:20:39;;;;;;;7.10;6.40;;;;;;;27.68;48.46;101036.38;10141232;28;20053;-75
2023/08/20 09:25:43;;;;;;;8.30;6.47;;;;;;;27.81;47.02;101041.78;10132871;29;21249;-75
2023/08/20 09:31:04;;;;;;;9.52;7.22;;;;;;;28.32;48.54;101032.47;10132123;29;20054;-75
2023/08/20 09:36:10;;;;;;;9.38;7.00;;;;;;;28.84;46.94;101023.88;10131524;29;20146;-75
2023/08/20 09:41:13;;;;;;;7.13;6.43;;;;;;;28.74;47.09;101021.66;10136145;29;20102;-75
2023/08/20 09:46:19;;;;;;;7.85;6.07;;;;;;;29.04;45.93;101016.19;10139092;28;20055;-74
2023/08/20 09:51:26;;;;;;;5.57;4.75;;;;;;;29.37;44.51;101018.56;10138169;29;20051;-74
2023/08/20 09:56:30;;;;;;;6.70;5.00;;;;;;;29.70;44.14;101036.63;10138303;29;20182;-74
2023/08/20 10:01:34;;;;;;;7.18;4.47;;;;;;;29.95;42.51;101030.06;10129489;29;20051;-74
2023/08/20 10:06:38;;;;;;;5.50;4.72;;;;;;;29.86;42.78;101037.88;10126188;29;20066;-74
2023/08/20 10:11:41;;;;;;;5.25;4.72;;;;;;;28.75;44.11;101042.72;10128243;28;20059;-74
2023/08/20 10:16:44;;;;;;;4.45;3.95;;;;;;;28.43;43.57;101028.97;10129790;28;20167;-74
2023/08/20 10:21:49;;;;;;;4.88;4.07;;;;;;;30.59;41.42;101039.41;10122931;29;20079;-74
2023/08/20 10:27:10;;;;;;;5.13;4.55;;;;;;;30.73;42.19;101030.88;10141144;28;20424;-74
2023/08/20 10:32:13;;;;;;;4.30;3.90;;;;;;;31.66;40.07;101024.22;10121506;29;20047;-75
2023/08/20 10:37:28;;;;;;;4.35;3.95;;;;;;;29.40;41.13;101027.44;10124654;29;20056;-74
2023/08/20 10:42:32;;;;;;;4.82;4.40;;;;;;;28.72;42.76;101037.66;10120964;28;20076;-74
2023/08/20 10:47:42;;;;;;;5.28;4.20;;;;;;;29.10;43.37;101034.66;10125752;29;20056;-74
2023/08/20 10:52:50;;;;;;;5.28;4.60;;;;;;;29.47;42.41;101034.59;10125627;29;20052;-74
2023/08/20 10:57:57;;;;;;;5.13;4.68;;;;;;;30.50;40.60;101015.06;10127345;29;20048;-74
2023/08/20 11:03:00;;;;;;;4.80;4.25;;;;;;;31.33;40.27;101016.63;10124250;29;20047;-74
2023/08/20 11:08:07;;;;;;;5.63;4.78;;;;;;;31.92;39.45;101010.75;10131789;28;20048;-74
2023/08/20 11:13:10;;;;;;;5.65;5.15;;;;;;;31.95;39.06;101011.13;10127054;28;20043;-75
2023/08/20 11:18:13;;;;;;;6.50;4.63;;;;;;;31.45;38.55;101019.31;10125060;29;20060;-74
2023/08/20 11:23:18;;;;;;;5.95;5.35;;;;;;;30.83;40.14;101020.00;10122237;29;21107;-74
2023/08/20 11:28:21;;;;;;;5.18;4.68;;;;;;;31.44;39.26;101021.28;10124988;28;20135;-74
2023/08/20 11:33:26;;;;;;;3.90;3.38;;;;;;;31.92;36.99;101021.88;10130747;29;20090;-74
2023/08/20 11:38:30;;;;;;;4.05;3.40;;;;;;;32.52;37.71;101032.28;10124019;28;20059;-74
2023/08/20 11:43:33;;;;;;;3.42;3.13;;;;;;;32.76;37.29;101024.59;10124819;29;20064;-74
2023/08/20 11:48:37;;;;;;;3.97;3.58;;;;;;;31.39;38.15;101018.41;10125090;29;21314;-74
2023/08/20 11:53:41;;;;;;;3.92;3.58;;;;;;;31.95;38.16;101015.81;10128221;29;20085;-74
2023/08/20 11:58:44;;;;;;;4.05;3.70;;;;;;;32.16;37.56;101005.88;10127110;28;20052;-74
2023/08/20 12:03:47;;;;;;;4.60;4.20;;;;;;;32.99;35.70;101008.75;10124474;29;20051;-74
2023/08/20 12:08:51;;;;;;;4.03;3.63;;;;;;;33.63;35.32;101008.13;10125477;28;20089;-74
2023/08/20 12:13:55;;;;;;;5.25;3.97;;;;;;;31.62;37.47;101005.47;10121955;29;20059;-74
2023/08/20 12:18:57;;;;;;;4.43;4.03;;;;;;;33.04;35.80;101000.47;10122034;29;20090;-74
2023/08/20 12:24:01;;;;;;;4.50;4.13;;;;;;;32.13;36.96;100990.56;10126618;29;20052;-74
2023/08/20 12:29:05;;;;;;;4.65;4.25;;;;;;;32.33;37.26;100992.81;10122202;29;20044;-75
2023/08/20 12:34:09;;;;;;;5.20;4.13;;;;;;;32.69;36.86;100987.78;10126582;28;20055;-75
2023/08/20 12:39:14;;;;;;;7.15;4.72;;;;;;;33.00;36.65;100991.81;10130741;28;20052;-75
2023/08/20 12:44:16;;;;;;;4.93;4.40;;;;;;;32.76;37.93;100980.09;10132031;29;20048;-75
2023/08/20 12:49:19;;;;;;;5.10;4.70;;;;;;;33.25;37.47;100980.16;10133109;29;20048;-74
2023/08/20 12:54:23;;;;;;;5.63;5.13;;;;;;;34.12;35.95;100983.78;10137617;29;20059;-74
2023/08/20 12:59:26;;;;;;;6.15;5.13;;;;;;;31.86;38.63;100975.66;10127486;28;20048;-75
2023/08/20 13:04:30;;;;;;;7.00;5.03;;;;;;;31.73;39.74;100979.59;10130373;28;20666;-75
2023/08/20 13:09:34;;;;;;;6.07;5.35;;;;;;;31.91;41.58;100976.59;10135268;29;20067;-74
2023/08/20 13:14:38;;;;;;;6.97;5.00;;;;;;;33.22;38.45;100972.34;10139963;29;20087;-74
2023/08/20 13:19:41;;;;;;;5.20;4.80;;;;;;;32.20;39.78;100973.75;10137599;28;20059;-74
2023/08/20 13:24:45;;;;;;;6.03;4.65;;;;;;;33.74;38.32;100980.09;10134316;29;20167;-74
2023/08/20 13:29:48;;;;;;;5.53;4.93;;;;;;;29.69;42.18;100976.81;10139102;28;20055;-74
2023/08/20 13:34:51;;;;;;;5.70;4.93;;;;;;;29.31;43.11;100974.38;10130252;29;20519;-74
2023/08/20 13:39:55;;;;;;;7.00;5.25;;;;;;;31.16;39.81;100961.06;10133791;28;20787;-74
2023/08/20 13:44:58;;;;;;;5.47;4.97;;;;;;;32.36;38.63;100950.59;10141337;29;20063;-74
2023/08/20 13:50:03;;;;;;;5.60;4.82;;;;;;;32.30;37.87;100950.81;10132941;29;20055;-75
2023/08/20 13:55:09;;;;;;;5.25;4.70;;;;;;;33.42;38.12;100951.38;10123088;29;20052;-74
2023/08/20 14:00:12;;;;;;;5.13;4.72;;;;;;;33.15;36.08;100940.25;10127854;28;20051;-74
2023/08/20 14:05:15;;;;;;;4.95;4.50;;;;;;;32.36;39.57;100947.81;10130716;29;20161;-74
2023/08/20 14:10:19;;;;;;;5.57;5.07;;;;;;;33.98;34.55;100937.91;10128871;28;20048;-75
2023/08/20 14:15:22;;;;;;;5.20;4.80;;;;;;;32.19;36.64;100939.53;10131304;29;20063;-75
2023/08/20 14:20:25;;;;;;;6.05;5.45;;;;;;;31.06;38.78;100936.72;10131728;28;20048;-74
2023/08/20 14:25:29;;;;;;;6.57;5.97;;;;;;;30.90;38.95;100940.28;10133533;28;20067;-75
2023/08/20 14:30:32;;;;;;;6.70;5.63;;;;;;;30.38;39.80;100934.72;10134723;29;20195;-75
2023/08/20 14:35:35;;;;;;;6.68;5.70;;;;;;;30.11;39.87;100928.78;10133478;28;20888;-75
2023/08/20 14:40:40;;;;;;;7.38;5.85;;;;;;;30.11;40.43;100934.34;10134894;29;20052;-74
2023/08/20 14:45:43;;;;;;;5.78;5.22;;;;;;;30.57;40.79;100930.69;10133562;29;20072;-74
2023/08/20 14:50:47;;;;;;;6.15;5.65;;;;;;;33.13;38.18;100917.34;10132947;28;20059;-74
2023/08/20 14:55:52;;;;;;;6.30;5.38;;;;;;;32.64;37.01;100923.75;10133071;28;20068;-74
2023/08/20 15:00:54;;;;;;;7.35;5.88;;;;;;;31.34;39.44;100915.59;10132822;29;20055;-74
2023/08/20 15:05:57;;;;;;;5.47;5.07;;;;;;;31.22;39.42;100917.63;10132027;29;20251;-74
2023/08/20 15:11:02;;;;;;;8.48;5.32;;;;;;;29.90;41.05;100930.25;10136115;29;20782;-74
2023/08/20 15:16:05;;;;;;;5.75;5.18;;;;;;;29.96;41.95;100926.53;10134574;28;20047;-74
2023/08/20 15:21:09;;;;;;;5.82;4.97;;;;;;;29.74;42.71;100926.28;10128192;28;20169;-74
2023/08/20 15:26:15;;;;;;;4.75;4.35;;;;;;;29.14;43.21;100935.47;10125833;28;20099;-74
2023/08/20 15:31:18;;;;;;;5.63;4.93;;;;;;;29.39;43.46;100932.53;10126404;29;20123;-73
2023/08/20 15:36:21;;;;;;;5.95;5.45;;;;;;;30.55;42.51;100921.78;10125527;29;20103;-74
2023/08/20 15:41:25;;;;;;;5.35;4.63;;;;;;;30.54;41.48;100908.16;10134925;29;20052;-74
2023/08/20 15:46:29;;;;;;;4.88;4.40;;;;;;;31.05;40.28;100921.16;10132997;28;20067;-75
2023/08/20 15:51:32;;;;;;;5.55;4.82;;;;;;;29.44;42.61;100931.84;10126815;29;20412;-74
2023/08/20 15:56:39;;;;;;;5.90;4.72;;;;;;;29.12;42.54;100927.41;10129975;29;20056;-75
2023/08/20 16:01:42;;;;;;;5.60;5.03;;;;;;;30.12;42.61;100923.03;10132955;28;20048;-74
2023/08/20 16:06:45;;;;;;;4.10;3.80;;;;;;;30.63;42.41;100924.16;10133411;29;21216;-74
2023/08/20 16:11:49;;;;;;;4.38;4.05;;;;;;;30.45;42.28;100927.13;10133974;28;20067;-74
2023/08/20 16:16:52;;;;;;;5.32;4.00;;;;;;;28.33;44.77;100926.44;10129005;28;20064;-74
2023/08/20 16:21:55;;;;;;;6.32;4.55;;;;;;;28.33;45.24;100925.59;10132797;28;20040;-75
2023/08/20 16:26:59;;;;;;;4.90;4.20;;;;;;;29.01;45.34;100930.94;10129324;28;20234;-74
2023/08/20 16:32:03;;;;;;;6.57;4.75;;;;;;;29.78;42.71;100925.53;10123823;29;20048;-74
2023/08/20 16:37:06;;;;;;;7.43;5.20;;;;;;;29.76;43.02;100916.66;10128185;29;20515;-74
2023/08/20 16:42:11;;;;;;;5.40;5.00;;;;;;;29.58;42.58;100917.53;10134538;28;20516;-78
2023/08/20 16:47:14;;;;;;;5.20;4.80;;;;;;;30.17;43.62;100922.31;10146022;28;20067;-78
2023/08/20 16:52:16;;;;;;;7.20;5.55;;;;;;;30.13;43.19;100921.97;10146425;28;20044;-77
2023/08/20 16:57:21;;;;;;;5.38;4.88;;;;;;;30.19;43.39;100920.16;10142352;29;20056;-77
2023/08/20 17:02:23;;;;;;;5.38;4.88;;;;;;;29.95;42.99;100919.28;10139602;29;20052;-78
2023/08/20 17:07:26;;;;;;;6.65;5.50;;;;;;;29.69;43.58;100924.22;10142711;28;20059;-78
2023/08/20 17:12:31;;;;;;;5.53;4.53;;;;;;;29.58;44.04;100922.25;10147830;28;20064;-78
2023/08/20 17:17:34;;;;;;;5.35;4.88;;;;;;;28.58;45.18;100920.88;10135673;28;20052;-77
2023/08/20 17:22:37;;;;;;;5.35;4.35;;;;;;;28.33;45.55;100923.69;10140222;28;20070;-76
2023/08/20 17:27:42;;;;;;;6.18;5.10;;;;;;;27.75;47.96;100935.03;10128825;29;20079;-76
2023/08/20 17:32:45;;;;;;;5.20;4.78;;;;;;;27.39;49.57;100936.56;10142553;28;20063;-76
2023/08/20 17:37:48;;;;;;;5.80;4.50;;;;;;;27.23;50.16;100937.09;10131909;28;20063;-77
2023/08/20 17:42:53;;;;;;;7.70;4.43;;;;;;;27.41;49.93;100942.72;10132442;28;20048;-77
2023/08/20 17:47:55;;;;;;;5.10;4.60;;;;;;;27.57;49.40;100935.84;10135511;29;20147;-77
2023/08/20 17:52:58;;;;;;;5.88;4.47;;;;;;;27.50;49.67;100935.03;10130070;29;20064;-77
2023/08/20 17:58:02;;;;;;;4.80;4.40;;;;;;;27.26;49.75;100942.16;10145214;28;21075;-77
2023/08/20 18:03:05;;;;;;;5.95;4.18;;;;;;;27.05;50.16;100941.44;10138057;28;20055;-78
2023/08/20 18:08:08;;;;;;;4.90;4.35;;;;;;;26.71;50.29;100951.75;10133495;28;20808;-77
2023/08/20 18:13:14;;;;;;;4.93;4.22;;;;;;;26.60;51.36;100946.03;10136242;28;20045;-77
2023/08/20 18:18:17;;;;;;;5.65;4.20;;;;;;;26.13;51.78;100953.53;10132696;28;20134;-77
2023/08/20 18:23:22;;;;;;;7.32;4.03;;;;;;;25.85;53.01;100969.22;10139588;29;20052;-77
2023/08/20 18:28:26;;;;;;;6.53;4.10;;;;;;;25.75;52.79;100976.19;10126616;29;20044;-77
2023/08/20 18:33:31;;;;;;;6.93;4.10;;;;;;;25.40;53.02;100976.34;10127094;28;20055;-77
2023/08/20 18:38:39;;;;;;;5.28;3.97;;;;;;;25.43;52.79;100981.44;10128125;29;20432;-77
2023/08/20 18:43:43;;;;;;;6.55;3.67;;;;;;;25.28;53.22;100987.09;10128631;29;20045;-77
2023/08/20 18:48:46;;;;;;;4.95;3.53;;;;;;;24.97;53.58;100996.69;10146340;29;20059;-78
2023/08/20 18:53:49;;;;;;;5.68;4.03;;;;;;;25.00;54.76;101003.66;10132921;29;20106;-78
2023/08/20 18:58:53;;;;;;;4.18;3.65;;;;;;;24.95;55.56;101015.25;10153775;28;20055;-78
2023/08/20 19:03:56;;;;;;;8.85;4.03;;;;;;;24.79;55.81;101023.00;10131662;29;20056;-78
2023/08/20 19:08:59;;;;;;;7.00;4.10;;;;;;;24.70;56.09;101025.06;10141169;28;20049;-78
2023/08/20 19:14:03;;;;;;;3.78;3.40;;;;;;;24.51;55.97;101030.22;10146640;29;21132;-77
2023/08/20 19:19:08;;;;;;;4.82;3.50;;;;;;;24.49;56.37;101045.22;10124206;29;20055;-76
2023/08/20 19:24:11;;;;;;;12.82;3.88;;;;;;;24.30;56.70;101053.09;10121008;28;20115;-76
2023/08/20 19:29:19;;;;;;;6.25;3.95;;;;;;;24.19;57.48;101061.00;10121889;29;20141;-75
2023/08/20 19:34:22;;;;;;;5.47;3.35;;;;;;;24.02;56.80;101065.91;10123812;29;20055;-76
2023/08/20 19:39:25;;;;;;;7.45;3.42;;;;;;;23.98;56.97;101065.47;10133873;29;20803;-75
2023/08/20 19:44:29;;;;;;;9.48;3.45;;;;;;;23.77;57.26;101059.97;10127309;28;20088;-75
2023/08/20 19:49:32;;;;;;;7.68;3.13;;;;;;;23.72;55.92;101079.72;10127972;29;20100;-75
2023/08/20 19:54:35;;;;;;;5.50;2.67;;;;;;;23.58;55.24;101091.59;10126450;28;20052;-75
2023/08/20 19:59:39;;;;;;;5.00;2.47;;;;;;;23.55;55.21;101094.72;10124881;28;20389;-75
2023/08/20 20:04:42;;;;;;;5.10;1.63;;;;;;;23.41;54.77;101094.56;10128931;28;20048;-75
2023/08/20 20:09:45;;;;;;;4.90;1.80;;;;;;;23.15;54.93;101086.84;10132615;28;20837;-75
2023/08/20 20:14:49;;;;;;;4.35;1.38;;;;;;;22.99;54.75;101084.28;10131093;29;20540;-75
2023/08/20 20:19:53;;;;;;;4.13;1.50;;;;;;;22.80;54.74;101096.66;10125213;28;20052;-75
2023/08/20 20:24:57;;;;;;;2.85;1.30;;;;;;;22.70;54.77;101098.81;10122754;28;20048;-75
2023/08/20 20:30:03;;;;;;;3.38;1.42;;;;;;;22.68;54.32;101096.28;10127929;29;20063;-75
2023/08/20 20:35:08;;;;;;;5.20;1.50;;;;;;;22.60;54.23;101101.81;10124748;29;20059;-74
2023/08/20 20:40:12;;;;;;;3.05;1.48;;;;;;;22.60;54.15;101093.63;10127240;28;20075;-75
2023/08/20 20:45:16;;;;;;;3.40;1.42;;;;;;;22.62;53.81;101085.19;10121399;28;20052;-75
2023/08/20 20:50:19;;;;;;;5.20;1.30;;;;;;;22.43;54.64;101100.22;10129713;28;20071;-75
2023/08/20 20:55:22;;;;;;;5.40;1.58;;;;;;;22.15;55.22;101094.50;10128717;28;20052;-75
2023/08/20 21:00:26;;;;;;;5.38;1.50;;;;;;;22.10;55.98;101084.97;10131244;29;20048;-75
2023/08/20 21:05:29;;;;;;;5.32;1.45;;;;;;;22.21;56.08;101093.75;10124498;29;21619;-75
2023/08/20 21:10:32;;;;;;;5.93;1.80;;;;;;;22.24;55.42;101094.25;10135477;29;20439;-75
2023/08/20 21:15:37;;;;;;;5.40;1.42;;;;;;;22.31;55.70;101097.94;10128065;28;20427;-75
2023/08/20 21:20:40;;;;;;;6.53;1.98;;;;;;;22.34;55.48;101102.19;10129587;29;20048;-75
2023/08/20 21:25:43;;;;;;;6.70;1.85;;;;;;;22.14;56.28;101099.13;10124935;29;20051;-75
2023/08/20 21:30:47;;;;;;;6.22;2.05;;;;;;;21.82;57.04;101092.84;10125450;29;20127;-75
2023/08/20 21:35:50;;;;;;;4.25;1.70;;;;;;;21.67;57.22;101103.69;10126805;29;20049;-75
2023/08/20 21:40:52;;;;;;;5.22;1.58;;;;;;;21.63;57.26;101105.06;10128762;29;20131;-75
2023/08/20 21:45:57;;;;;;;4.18;1.55;;;;;;;21.61;57.79;101109.88;10123218;28;20421;-74
2023/08/20 21:51:00;;;;;;;3.97;1.92;;;;;;;21.62;57.88;101108.00;10116299;28;20048;-74
2023/08/20 21:56:04;;;;;;;5.38;1.83;;;;;;;21.52;57.92;101115.56;10124667;28;20076;-75
2023/08/20 22:01:09;;;;;;;2.40;1.63;;;;;;;21.33;58.64;101120.41;10132943;29;20048;-75
2023/08/20 22:06:11;;;;;;;5.28;2.00;;;;;;;20.86;59.10;101120.38;10127682;29;20064;-75
2023/08/20 22:11:14;;;;;;;2.40;1.80;;;;;;;20.34;60.59;101114.31;10125105;29;20505;-73
2023/08/20 22:16:18;;;;;;;8.35;1.58;;;;;;;20.46;60.57;101116.69;10121054;28;21175;-75
2023/08/20 22:21:21;;;;;;;3.30;1.50;;;;;;;20.52;60.58;101105.94;10121362;28;20041;-75
2023/08/20 22:26:24;;;;;;;9.23;1.60;;;;;;;20.64;60.54;101111.03;10124023;29;20508;-75
2023/08/20 22:31:28;;;;;;;2.63;1.60;;;;;;;20.87;59.74;101103.84;10124290;29;20055;-75
2023/08/20 22:36:31;;;;;;;5.50;1.73;;;;;;;20.94;59.77;101095.78;10125680;29;20055;-75
2023/08/20 22:41:34;;;;;;;3.35;1.60;;;;;;;20.96;59.66;101104.66;10118862;28;20063;-75
2023/08/20 22:46:38;;;;;;;4.57;1.60;;;;;;;20.61;60.38;101097.75;10131783;28;20079;-75
2023/08/20 22:51:41;;;;;;;5.03;1.52;;;;;;;20.24;61.03;101104.56;10135012;29;20401;-75
2023/08/20 22:56:44;;;;;;;2.83;1.15;;;;;;;20.15;61.56;101100.97;10134596;29;20075;-75
2023/08/20 23:01:50;;;;;;;4.57;1.70;;;;;;;20.15;61.66;101106.44;10123792;29;20135;-75
2023/08/20 23:06:53;;;;;;;4.13;1.50;;;;;;;20.14;61.61;101102.00;10120640;28;20059;-74
2023/08/20 23:11:56;;;;;;;4.10;1.15;;;;;;;19.78;62.48;101107.75;10118790;28;20055;-75